sensor_id;sensor_type;location;lat;lon;timestamp;temperature;humidity
28071;DHT22;15383;48.408;9.968;2023-08-06T00:01:58;19.10;95.30
28071;DHT22;15383;48.408;9.968;2023-08-06T00:04:24;19.00;95.30
28071;DHT22;15383;48.408;9.968;2023-08-06T00:06:50;18.90;95.60
28071;DHT22;15383;48.408;9.968;2023-08-06T00:09:15;18.90;95.60
28071;DHT22;15383;48.408;9.968;2023-08-06T00:11:41;18.90;95.30
28071;DHT22;15383;48.408;9.968;2023-08-06T00:14:09;18.90;95.30
28071;DHT22;15383;48.408;9.968;2023-08-06T00:16:35;18.90;95.30
28071;DHT22;15383;48.408;9.968;2023-08-06T00:19:00;18.90;95.30
28071;DHT22;15383;48.408;9.968;2023-08-06T00:21:26;18.90;95.30
28071;DHT22;15383;48.408;9.968;2023-08-06T00:23:51;18.90;95.30
28071;DHT22;15383;48.408;9.968;2023-08-06T00:26:17;18.90;95.30
28071;DHT22;15383;48.408;9.968;2023-08-06T00:28:43;18.90;95.30
28071;DHT22;15383;48.408;9.968;2023-08-06T00:31:08;18.90;95.30
28071;DHT22;15383;48.408;9.968;2023-08-06T00:33:34;18.70;95.30
28071;DHT22;15383;48.408;9.968;2023-08-06T00:36:00;18.90;95.30
28071;DHT22;15383;48.408;9.968;2023-08-06T00:38:25;19.10;95.40
28071;DHT22;15383;48.408;9.968;2023-08-06T00:40:51;18.90;95.30
28071;DHT22;15383;48.408;9.968;2023-08-06T00:43:16;18.90;95.30
28071;DHT22;15383;48.408;9.968;2023-08-06T00:45:42;18.90;95.30
28071;DHT22;15383;48.408;9.968;2023-08-06T00:48:08;18.90;95.30
28071;DHT22;15383;48.408;9.968;2023-08-06T00:50:34;18.90;95.30
28071;DHT22;15383;48.408;9.968;2023-08-06T00:52:59;18.90;95.30
28071;DHT22;15383;48.408;9.968;2023-08-06T00:55:26;18.90;95.40
28071;DHT22;15383;48.408;9.968;2023-08-06T00:57:52;19.00;95.40
28071;DHT22;15383;48.408;9.968;2023-08-06T01:00:22;18.90;95.30
28071;DHT22;15383;48.408;9.968;2023-08-06T01:02:48;19.00;95.40
28071;DHT22;15383;48.408;9.968;2023-08-06T01:05:14;18.90;95.30
28071;DHT22;15383;48.408;9.968;2023-08-06T01:10:45;18.90;95.30
28071;DHT22;15383;48.408;9.968;2023-08-06T01:13:27;18.90;95.30
28071;DHT22;15383;48.408;9.968;2023-08-06T01:15:56;18.90;95.30
28071;DHT22;15383;48.408;9.968;2023-08-06T01:18:23;18.90;95.30
28071;DHT22;15383;48.408;9.968;2023-08-06T01:20:49;19.20;95.40
28071;DHT22;15383;48.408;9.968;2023-08-06T01:23:18;18.90;95.30
28071;DHT22;15383;48.408;9.968;2023-08-06T01:26:22;18.90;95.30
28071;DHT22;15383;48.408;9.968;2023-08-06T01:31:31;18.90;95.30
28071;DHT22;15383;48.408;9.968;2023-08-06T01:33:58;18.90;95.30
28071;DHT22;15383;48.408;9.968;2023-08-06T01:36:25;18.90;95.30
28071;DHT22;15383;48.408;9.968;2023-08-06T01:38:52;18.90;95.30
28071;DHT22;15383;48.408;9.968;2023-08-06T01:41:21;18.90;95.30
28071;DHT22;15383;48.408;9.968;2023-08-06T01:43:47;18.80;95.30
28071;DHT22;15383;48.408;9.968;2023-08-06T01:46:12;18.90;95.30
28071;DHT22;15383;48.408;9.968;2023-08-06T01:48:38;18.80;95.30
28071;DHT22;15383;48.408;9.968;2023-08-06T01:51:04;18.90;95.30
28071;DHT22;15383;48.408;9.968;2023-08-06T01:53:37;18.90;95.30
28071;DHT22;15383;48.408;9.968;2023-08-06T01:56:03;18.80;95.30
28071;DHT22;15383;48.408;9.968;2023-08-06T01:58:29;18.90;95.30
28071;DHT22;15383;48.408;9.968;2023-08-06T02:00:57;18.90;95.30
28071;DHT22;15383;48.408;9.968;2023-08-06T02:03:23;18.90;95.30
28071;DHT22;15383;48.408;9.968;2023-08-06T02:05:48;18.90;95.30
28071;DHT22;15383;48.408;9.968;2023-08-06T02:08:14;18.80;95.20
28071;DHT22;15383;48.408;9.968;2023-08-06T02:10:40;18.80;95.20
28071;DHT22;15383;48.408;9.968;2023-08-06T02:13:06;18.80;95.20
28071;DHT22;15383;48.408;9.968;2023-08-06T02:15:32;18.80;95.20
28071;DHT22;15383;48.408;9.968;2023-08-06T02:17:58;19.60;95.40
28071;DHT22;15383;48.408;9.968;2023-08-06T02:20:23;18.90;95.20
28071;DHT22;15383;48.408;9.968;2023-08-06T02:22:49;18.80;95.20
28071;DHT22;15383;48.408;9.968;2023-08-06T02:25:14;20.10;95.50
28071;DHT22;15383;48.408;9.968;2023-08-06T02:27:40;18.80;95.20
28071;DHT22;15383;48.408;9.968;2023-08-06T02:30:06;18.80;95.10
28071;DHT22;15383;48.408;9.968;2023-08-06T02:32:32;18.80;95.10
28071;DHT22;15383;48.408;9.968;2023-08-06T02:35:01;18.80;95.10
28071;DHT22;15383;48.408;9.968;2023-08-06T02:37:27;18.80;95.20
28071;DHT22;15383;48.408;9.968;2023-08-06T02:39:53;18.80;95.10
28071;DHT22;15383;48.408;9.968;2023-08-06T02:42:18;18.80;95.10
28071;DHT22;15383;48.408;9.968;2023-08-06T02:44:44;18.80;95.10
28071;DHT22;15383;48.408;9.968;2023-08-06T02:47:09;18.80;95.10
28071;DHT22;15383;48.408;9.968;2023-08-06T02:49:35;19.00;95.20
28071;DHT22;15383;48.408;9.968;2023-08-06T02:52:01;18.80;95.10
28071;DHT22;15383;48.408;9.968;2023-08-06T02:54:26;18.80;95.10
28071;DHT22;15383;48.408;9.968;2023-08-06T02:56:52;18.80;95.10
28071;DHT22;15383;48.408;9.968;2023-08-06T02:59:17;18.90;95.10
28071;DHT22;15383;48.408;9.968;2023-08-06T03:01:43;18.80;95.10
28071;DHT22;15383;48.408;9.968;2023-08-06T03:04:09;18.80;95.10
28071;DHT22;15383;48.408;9.968;2023-08-06T03:06:34;18.80;95.10
28071;DHT22;15383;48.408;9.968;2023-08-06T03:09:00;18.80;95.10
28071;DHT22;15383;48.408;9.968;2023-08-06T03:11:25;18.80;95.10
28071;DHT22;15383;48.408;9.968;2023-08-06T03:13:51;18.80;95.00
28071;DHT22;15383;48.408;9.968;2023-08-06T03:16:17;18.80;95.00
28071;DHT22;15383;48.408;9.968;2023-08-06T03:18:42;18.80;95.00
28071;DHT22;15383;48.408;9.968;2023-08-06T03:21:08;18.80;95.00
28071;DHT22;15383;48.408;9.968;2023-08-06T03:23:33;18.80;95.00
28071;DHT22;15383;48.408;9.968;2023-08-06T03:26:03;18.80;95.00
28071;DHT22;15383;48.408;9.968;2023-08-06T03:28:29;18.80;95.00
28071;DHT22;15383;48.408;9.968;2023-08-06T03:31:04;18.80;95.00
28071;DHT22;15383;48.408;9.968;2023-08-06T03:33:29;18.80;95.00
28071;DHT22;15383;48.408;9.968;2023-08-06T03:35:55;18.80;95.00
28071;DHT22;15383;48.408;9.968;2023-08-06T03:38:22;18.80;95.00
28071;DHT22;15383;48.408;9.968;2023-08-06T03:40:48;18.80;94.90
28071;DHT22;15383;48.408;9.968;2023-08-06T03:43:14;18.80;94.90
28071;DHT22;15383;48.408;9.968;2023-08-06T03:45:41;18.80;94.90
28071;DHT22;15383;48.408;9.968;2023-08-06T03:48:07;18.80;94.90
28071;DHT22;15383;48.408;9.968;2023-08-06T03:50:33;18.80;94.90
28071;DHT22;15383;48.408;9.968;2023-08-06T03:52:59;18.80;94.90
28071;DHT22;15383;48.408;9.968;2023-08-06T03:55:24;18.80;94.90
28071;DHT22;15383;48.408;9.968;2023-08-06T03:57:50;19.50;95.10
28071;DHT22;15383;48.408;9.968;2023-08-06T04:00:16;18.80;94.90
28071;DHT22;15383;48.408;9.968;2023-08-06T04:02:42;18.80;94.90
28071;DHT22;15383;48.408;9.968;2023-08-06T04:05:08;18.80;94.80
28071;DHT22;15383;48.408;9.968;2023-08-06T04:07:34;18.80;94.80
28071;DHT22;15383;48.408;9.968;2023-08-06T04:10:02;18.80;94.80
28071;DHT22;15383;48.408;9.968;2023-08-06T04:12:28;18.80;94.90
28071;DHT22;15383;48.408;9.968;2023-08-06T04:14:54;18.80;94.80
28071;DHT22;15383;48.408;9.968;2023-08-06T04:17:21;18.80;94.80
28071;DHT22;15383;48.408;9.968;2023-08-06T04:19:50;18.80;94.80
28071;DHT22;15383;48.408;9.968;2023-08-06T04:22:16;18.80;94.80
28071;DHT22;15383;48.408;9.968;2023-08-06T04:24:42;18.80;94.80
28071;DHT22;15383;48.408;9.968;2023-08-06T04:27:09;18.80;94.80
28071;DHT22;15383;48.408;9.968;2023-08-06T04:29:35;18.80;94.80
28071;DHT22;15383;48.408;9.968;2023-08-06T04:32:01;18.80;94.80
28071;DHT22;15383;48.408;9.968;2023-08-06T04:34:29;18.80;94.80
28071;DHT22;15383;48.408;9.968;2023-08-06T04:36:55;18.70;94.70
28071;DHT22;15383;48.408;9.968;2023-08-06T04:39:20;18.80;94.80
28071;DHT22;15383;48.408;9.968;2023-08-06T04:41:46;18.80;94.80
28071;DHT22;15383;48.408;9.968;2023-08-06T04:44:11;18.80;94.80
28071;DHT22;15383;48.408;9.968;2023-08-06T04:46:37;18.70;94.70
28071;DHT22;15383;48.408;9.968;2023-08-06T04:49:03;18.80;94.70
28071;DHT22;15383;48.408;9.968;2023-08-06T04:51:28;18.80;94.70
28071;DHT22;15383;48.408;9.968;2023-08-06T04:53:54;18.80;95.10
28071;DHT22;15383;48.408;9.968;2023-08-06T04:56:19;18.70;94.70
28071;DHT22;15383;48.408;9.968;2023-08-06T04:58:45;19.10;94.80
28071;DHT22;15383;48.408;9.968;2023-08-06T05:01:11;18.70;94.70
28071;DHT22;15383;48.408;9.968;2023-08-06T05:03:36;18.70;94.70
28071;DHT22;15383;48.408;9.968;2023-08-06T05:06:02;18.70;94.70
28071;DHT22;15383;48.408;9.968;2023-08-06T05:08:27;18.80;94.70
28071;DHT22;15383;48.408;9.968;2023-08-06T05:10:53;18.70;94.70
28071;DHT22;15383;48.408;9.968;2023-08-06T05:13:19;18.70;94.70
28071;DHT22;15383;48.408;9.968;2023-08-06T05:15:44;18.70;94.70
28071;DHT22;15383;48.408;9.968;2023-08-06T05:18:12;18.80;94.70
28071;DHT22;15383;48.408;9.968;2023-08-06T05:20:39;18.70;94.70
28071;DHT22;15383;48.408;9.968;2023-08-06T05:23:05;18.70;94.70
28071;DHT22;15383;48.408;9.968;2023-08-06T05:25:30;18.70;94.70
28071;DHT22;15383;48.408;9.968;2023-08-06T05:27:56;18.70;94.70
28071;DHT22;15383;48.408;9.968;2023-08-06T05:30:21;18.70;94.70
28071;DHT22;15383;48.408;9.968;2023-08-06T05:32:47;18.70;94.70
28071;DHT22;15383;48.408;9.968;2023-08-06T05:35:13;18.70;94.70
28071;DHT22;15383;48.408;9.968;2023-08-06T05:37:38;18.70;94.70
28071;DHT22;15383;48.408;9.968;2023-08-06T05:40:04;18.70;94.60
28071;DHT22;15383;48.408;9.968;2023-08-06T05:42:30;18.70;94.60
28071;DHT22;15383;48.408;9.968;2023-08-06T05:44:56;18.70;94.60
28071;DHT22;15383;48.408;9.968;2023-08-06T05:47:21;18.70;94.60
28071;DHT22;15383;48.408;9.968;2023-08-06T05:49:47;18.70;94.60
28071;DHT22;15383;48.408;9.968;2023-08-06T05:52:12;18.70;94.60
28071;DHT22;15383;48.408;9.968;2023-08-06T05:54:38;18.70;94.60
28071;DHT22;15383;48.408;9.968;2023-08-06T05:57:06;18.70;94.60
28071;DHT22;15383;48.408;9.968;2023-08-06T05:59:31;18.70;94.60
28071;DHT22;15383;48.408;9.968;2023-08-06T06:01:57;18.70;94.60
28071;DHT22;15383;48.408;9.968;2023-08-06T06:04:23;18.70;94.60
28071;DHT22;15383;48.408;9.968;2023-08-06T06:06:48;18.70;94.60
28071;DHT22;15383;48.408;9.968;2023-08-06T06:09:14;18.70;94.60
28071;DHT22;15383;48.408;9.968;2023-08-06T06:11:39;18.80;94.60
28071;DHT22;15383;48.408;9.968;2023-08-06T06:14:05;18.80;94.60
28071;DHT22;15383;48.408;9.968;2023-08-06T06:16:30;18.80;94.60
28071;DHT22;15383;48.408;9.968;2023-08-06T06:18:56;19.10;94.90
28071;DHT22;15383;48.408;9.968;2023-08-06T06:21:23;18.80;94.60
28071;DHT22;15383;48.408;9.968;2023-08-06T06:23:49;18.80;94.60
28071;DHT22;15383;48.408;9.968;2023-08-06T06:26:19;18.80;94.50
28071;DHT22;15383;48.408;9.968;2023-08-06T06:28:45;18.80;94.50
28071;DHT22;15383;48.408;9.968;2023-08-06T06:31:10;18.80;94.60
28071;DHT22;15383;48.408;9.968;2023-08-06T06:33:36;18.80;94.70
28071;DHT22;15383;48.408;9.968;2023-08-06T06:36:02;18.80;94.70
28071;DHT22;15383;48.408;9.968;2023-08-06T06:38:29;18.80;94.70
28071;DHT22;15383;48.408;9.968;2023-08-06T06:40:58;18.80;94.70
28071;DHT22;15383;48.408;9.968;2023-08-06T06:43:24;18.80;94.70
28071;DHT22;15383;48.408;9.968;2023-08-06T06:45:56;18.80;94.70
28071;DHT22;15383;48.408;9.968;2023-08-06T06:48:24;18.80;94.70
28071;DHT22;15383;48.408;9.968;2023-08-06T06:50:50;18.80;94.70
28071;DHT22;15383;48.408;9.968;2023-08-06T06:53:15;18.80;94.70
28071;DHT22;15383;48.408;9.968;2023-08-06T06:55:41;18.80;94.70
28071;DHT22;15383;48.408;9.968;2023-08-06T06:58:06;18.80;94.70
28071;DHT22;15383;48.408;9.968;2023-08-06T07:00:32;18.80;94.70
28071;DHT22;15383;48.408;9.968;2023-08-06T07:02:57;18.80;94.70
28071;DHT22;15383;48.408;9.968;2023-08-06T07:05:23;18.80;94.70
28071;DHT22;15383;48.408;9.968;2023-08-06T07:07:48;18.80;94.80
28071;DHT22;15383;48.408;9.968;2023-08-06T07:10:14;18.80;94.80
28071;DHT22;15383;48.408;9.968;2023-08-06T07:12:40;18.80;94.70
28071;DHT22;15383;48.408;9.968;2023-08-06T07:15:08;18.80;94.80
28071;DHT22;15383;48.408;9.968;2023-08-06T07:17:34;18.80;94.70
28071;DHT22;15383;48.408;9.968;2023-08-06T07:20:00;18.70;94.60
28071;DHT22;15383;48.408;9.968;2023-08-06T07:22:25;18.80;94.70
28071;DHT22;15383;48.408;9.968;2023-08-06T07:24:51;18.80;94.70
28071;DHT22;15383;48.408;9.968;2023-08-06T07:27:16;18.70;94.70
28071;DHT22;15383;48.408;9.968;2023-08-06T07:29:42;19.30;94.80
28071;DHT22;15383;48.408;9.968;2023-08-06T07:32:08;18.80;94.70
28071;DHT22;15383;48.408;9.968;2023-08-06T07:34:33;19.30;94.80
28071;DHT22;15383;48.408;9.968;2023-08-06T07:36:59;18.80;94.70
28071;DHT22;15383;48.408;9.968;2023-08-06T07:39:25;18.70;94.60
28071;DHT22;15383;48.408;9.968;2023-08-06T07:41:50;18.70;94.60
28071;DHT22;15383;48.408;9.968;2023-08-06T07:44:16;18.80;94.70
28071;DHT22;15383;48.408;9.968;2023-08-06T07:46:42;18.70;94.60
28071;DHT22;15383;48.408;9.968;2023-08-06T07:49:08;18.70;94.60
28071;DHT22;15383;48.408;9.968;2023-08-06T07:51:33;18.80;94.60
28071;DHT22;15383;48.408;9.968;2023-08-06T07:53:59;18.70;94.60
28071;DHT22;15383;48.408;9.968;2023-08-06T07:56:24;18.80;94.60
28071;DHT22;15383;48.408;9.968;2023-08-06T07:58:50;18.80;94.60
28071;DHT22;15383;48.408;9.968;2023-08-06T08:01:16;18.80;94.60
28071;DHT22;15383;48.408;9.968;2023-08-06T08:03:41;18.80;94.50
28071;DHT22;15383;48.408;9.968;2023-08-06T08:06:07;18.90;94.50
28071;DHT22;15383;48.408;9.968;2023-08-06T08:08:32;18.80;94.50
28071;DHT22;15383;48.408;9.968;2023-08-06T08:11:01;18.80;94.50
28071;DHT22;15383;48.408;9.968;2023-08-06T08:13:27;18.80;94.50
28071;DHT22;15383;48.408;9.968;2023-08-06T08:15:57;18.80;94.40
28071;DHT22;15383;48.408;9.968;2023-08-06T08:18:24;18.80;94.40
28071;DHT22;15383;48.408;9.968;2023-08-06T08:20:50;18.80;94.40
28071;DHT22;15383;48.408;9.968;2023-08-06T08:23:16;18.80;94.40
28071;DHT22;15383;48.408;9.968;2023-08-06T08:25:44;18.80;94.40
28071;DHT22;15383;48.408;9.968;2023-08-06T08:28:13;18.80;94.30
28071;DHT22;15383;48.408;9.968;2023-08-06T08:30:40;18.80;94.50
28071;DHT22;15383;48.408;9.968;2023-08-06T08:33:06;18.80;94.40
28071;DHT22;15383;48.408;9.968;2023-08-06T08:35:33;18.80;94.40
28071;DHT22;15383;48.408;9.968;2023-08-06T08:37:59;18.80;94.40
28071;DHT22;15383;48.408;9.968;2023-08-06T08:40:33;18.70;94.10
28071;DHT22;15383;48.408;9.968;2023-08-06T08:43:00;18.60;94.30
28071;DHT22;15383;48.408;9.968;2023-08-06T08:45:29;18.60;94.40
28071;DHT22;15383;48.408;9.968;2023-08-06T08:47:55;18.70;94.40
28071;DHT22;15383;48.408;9.968;2023-08-06T08:50:21;18.60;94.40
28071;DHT22;15383;48.408;9.968;2023-08-06T08:52:55;18.80;94.40
28071;DHT22;15383;48.408;9.968;2023-08-06T08:55:21;18.70;94.30
28071;DHT22;15383;48.408;9.968;2023-08-06T08:57:51;18.70;94.30
28071;DHT22;15383;48.408;9.968;2023-08-06T09:00:17;18.70;94.30
28071;DHT22;15383;48.408;9.968;2023-08-06T09:02:44;18.70;94.30
28071;DHT22;15383;48.408;9.968;2023-08-06T09:05:11;18.70;94.30
28071;DHT22;15383;48.408;9.968;2023-08-06T09:07:48;18.70;94.30
28071;DHT22;15383;48.408;9.968;2023-08-06T09:10:16;18.70;94.30
28071;DHT22;15383;48.408;9.968;2023-08-06T09:12:44;18.70;94.30
28071;DHT22;15383;48.408;9.968;2023-08-06T09:15:10;18.70;94.30
28071;DHT22;15383;48.408;9.968;2023-08-06T09:17:37;18.70;94.30
28071;DHT22;15383;48.408;9.968;2023-08-06T09:20:27;18.70;94.30
28071;DHT22;15383;48.408;9.968;2023-08-06T09:22:53;19.20;94.40
28071;DHT22;15383;48.408;9.968;2023-08-06T09:25:23;18.70;94.30
28071;DHT22;15383;48.408;9.968;2023-08-06T09:27:50;18.70;94.30
28071;DHT22;15383;48.408;9.968;2023-08-06T09:30:37;18.70;94.30
28071;DHT22;15383;48.408;9.968;2023-08-06T09:33:08;18.70;94.30
28071;DHT22;15383;48.408;9.968;2023-08-06T09:35:35;18.70;94.30
28071;DHT22;15383;48.408;9.968;2023-08-06T09:38:09;18.70;94.30
28071;DHT22;15383;48.408;9.968;2023-08-06T09:40:36;18.70;94.30
28071;DHT22;15383;48.408;9.968;2023-08-06T09:43:02;18.70;94.30
28071;DHT22;15383;48.408;9.968;2023-08-06T09:45:35;18.70;94.30
28071;DHT22;15383;48.408;9.968;2023-08-06T09:48:08;18.80;94.40
28071;DHT22;15383;48.408;9.968;2023-08-06T09:50:38;18.70;94.30
28071;DHT22;15383;48.408;9.968;2023-08-06T09:53:05;18.70;94.30
28071;DHT22;15383;48.408;9.968;2023-08-06T09:55:32;18.70;94.30
28071;DHT22;15383;48.408;9.968;2023-08-06T09:57:59;18.70;94.30
28071;DHT22;15383;48.408;9.968;2023-08-06T10:00:25;18.70;94.30
28071;DHT22;15383;48.408;9.968;2023-08-06T10:02:53;18.70;94.30
28071;DHT22;15383;48.408;9.968;2023-08-06T10:05:22;18.70;94.30
28071;DHT22;15383;48.408;9.968;2023-08-06T10:07:55;18.70;94.30
28071;DHT22;15383;48.408;9.968;2023-08-06T10:10:56;18.70;94.30
28071;DHT22;15383;48.408;9.968;2023-08-06T10:13:22;18.70;94.40
28071;DHT22;15383;48.408;9.968;2023-08-06T10:15:49;18.70;94.40
28071;DHT22;15383;48.408;9.968;2023-08-06T10:18:17;18.70;94.30
28071;DHT22;15383;48.408;9.968;2023-08-06T10:21:25;18.70;94.40
28071;DHT22;15383;48.408;9.968;2023-08-06T10:23:58;18.70;94.30
28071;DHT22;15383;48.408;9.968;2023-08-06T10:26:49;19.70;94.60
28071;DHT22;15383;48.408;9.968;2023-08-06T10:29:36;18.70;94.40
28071;DHT22;15383;48.408;9.968;2023-08-06T10:32:02;18.70;94.40
28071;DHT22;15383;48.408;9.968;2023-08-06T10:37:26;18.70;94.50
28071;DHT22;15383;48.408;9.968;2023-08-06T10:39:59;18.70;94.50
28071;DHT22;15383;48.408;9.968;2023-08-06T10:42:29;18.70;94.50
28071;DHT22;15383;48.408;9.968;2023-08-06T10:45:30;18.80;94.50
28071;DHT22;15383;48.408;9.968;2023-08-06T10:48:02;18.70;94.50
28071;DHT22;15383;48.408;9.968;2023-08-06T10:50:27;18.70;94.50
28071;DHT22;15383;48.408;9.968;2023-08-06T10:52:53;18.70;94.50
28071;DHT22;15383;48.408;9.968;2023-08-06T10:55:23;18.70;94.50
28071;DHT22;15383;48.408;9.968;2023-08-06T10:57:49;18.80;94.50
28071;DHT22;15383;48.408;9.968;2023-08-06T11:00:15;18.70;94.50
28071;DHT22;15383;48.408;9.968;2023-08-06T11:02:41;18.80;94.50
28071;DHT22;15383;48.408;9.968;2023-08-06T11:05:10;18.80;94.50
28071;DHT22;15383;48.408;9.968;2023-08-06T11:07:45;18.70;94.50
28071;DHT22;15383;48.408;9.968;2023-08-06T11:10:20;18.70;94.50
28071;DHT22;15383;48.408;9.968;2023-08-06T11:12:49;18.70;94.50
28071;DHT22;15383;48.408;9.968;2023-08-06T11:15:20;18.80;94.50
28071;DHT22;15383;48.408;9.968;2023-08-06T11:17:46;18.80;94.50
28071;DHT22;15383;48.408;9.968;2023-08-06T11:20:12;18.80;94.50
28071;DHT22;15383;48.408;9.968;2023-08-06T11:22:38;19.00;94.60
28071;DHT22;15383;48.408;9.968;2023-08-06T11:25:06;18.70;94.50
28071;DHT22;15383;48.408;9.968;2023-08-06T11:27:32;18.70;94.50
28071;DHT22;15383;48.408;9.968;2023-08-06T11:29:58;18.70;94.50
28071;DHT22;15383;48.408;9.968;2023-08-06T11:32:23;18.70;94.50
28071;DHT22;15383;48.408;9.968;2023-08-06T11:34:49;18.70;94.50
28071;DHT22;15383;48.408;9.968;2023-08-06T11:37:15;18.70;94.50
28071;DHT22;15383;48.408;9.968;2023-08-06T11:39:46;18.70;94.50
28071;DHT22;15383;48.408;9.968;2023-08-06T11:42:13;18.60;94.50
28071;DHT22;15383;48.408;9.968;2023-08-06T11:44:40;18.70;94.50
28071;DHT22;15383;48.408;9.968;2023-08-06T11:47:16;18.70;94.50
28071;DHT22;15383;48.408;9.968;2023-08-06T11:49:51;18.70;94.50
28071;DHT22;15383;48.408;9.968;2023-08-06T11:52:21;18.70;94.50
28071;DHT22;15383;48.408;9.968;2023-08-06T11:57:31;18.70;94.50
28071;DHT22;15383;48.408;9.968;2023-08-06T12:02:34;18.70;94.50
28071;DHT22;15383;48.408;9.968;2023-08-06T12:05:01;18.70;94.50
28071;DHT22;15383;48.408;9.968;2023-08-06T12:07:29;18.70;94.50
28071;DHT22;15383;48.408;9.968;2023-08-06T12:09:56;18.70;94.50
28071;DHT22;15383;48.408;9.968;2023-08-06T12:12:21;18.70;94.50
28071;DHT22;15383;48.408;9.968;2023-08-06T12:14:48;18.70;94.50
28071;DHT22;15383;48.408;9.968;2023-08-06T12:20:20;18.70;94.50
28071;DHT22;15383;48.408;9.968;2023-08-06T12:22:46;18.70;94.50
28071;DHT22;15383;48.408;9.968;2023-08-06T12:25:30;18.70;94.50
28071;DHT22;15383;48.408;9.968;2023-08-06T12:28:15;18.70;94.50
28071;DHT22;15383;48.408;9.968;2023-08-06T12:30:51;18.70;94.50
28071;DHT22;15383;48.408;9.968;2023-08-06T12:33:30;18.80;94.60
28071;DHT22;15383;48.408;9.968;2023-08-06T12:36:11;18.80;94.60
28071;DHT22;15383;48.408;9.968;2023-08-06T12:38:55;18.80;94.60
28071;DHT22;15383;48.408;9.968;2023-08-06T12:41:23;18.70;94.50
28071;DHT22;15383;48.408;9.968;2023-08-06T12:43:50;18.70;94.50
28071;DHT22;15383;48.408;9.968;2023-08-06T12:46:15;18.80;94.60
28071;DHT22;15383;48.408;9.968;2023-08-06T12:48:41;18.70;94.80
28071;DHT22;15383;48.408;9.968;2023-08-06T12:51:06;18.70;94.60
28071;DHT22;15383;48.408;9.968;2023-08-06T12:53:32;19.30;94.70
28071;DHT22;15383;48.408;9.968;2023-08-06T12:55:58;18.70;94.50
28071;DHT22;15383;48.408;9.968;2023-08-06T12:58:23;19.30;94.70
28071;DHT22;15383;48.408;9.968;2023-08-06T13:00:49;18.70;94.60
28071;DHT22;15383;48.408;9.968;2023-08-06T13:03:14;18.70;94.50
28071;DHT22;15383;48.408;9.968;2023-08-06T13:05:40;19.20;94.70
28071;DHT22;15383;48.408;9.968;2023-08-06T13:08:05;18.80;94.60
28071;DHT22;15383;48.408;9.968;2023-08-06T13:10:31;18.80;94.60
28071;DHT22;15383;48.408;9.968;2023-08-06T13:12:57;18.80;94.70
28071;DHT22;15383;48.408;9.968;2023-08-06T13:15:23;18.80;94.70
28071;DHT22;15383;48.408;9.968;2023-08-06T13:17:50;18.80;94.70
28071;DHT22;15383;48.408;9.968;2023-08-06T13:20:17;19.00;94.70
28071;DHT22;15383;48.408;9.968;2023-08-06T13:22:44;18.80;94.70
28071;DHT22;15383;48.408;9.968;2023-08-06T13:25:14;18.80;94.70
28071;DHT22;15383;48.408;9.968;2023-08-06T13:27:41;18.80;94.70
28071;DHT22;15383;48.408;9.968;2023-08-06T13:30:11;18.70;94.60
28071;DHT22;15383;48.408;9.968;2023-08-06T13:32:37;18.80;94.60
28071;DHT22;15383;48.408;9.968;2023-08-06T13:35:04;18.80;94.60
28071;DHT22;15383;48.408;9.968;2023-08-06T13:37:30;18.70;94.50
28071;DHT22;15383;48.408;9.968;2023-08-06T13:39:56;18.80;94.50
28071;DHT22;15383;48.408;9.968;2023-08-06T13:42:22;18.80;94.50
28071;DHT22;15383;48.408;9.968;2023-08-06T13:44:47;18.80;94.50
28071;DHT22;15383;48.408;9.968;2023-08-06T13:47:13;18.80;94.50
28071;DHT22;15383;48.408;9.968;2023-08-06T13:49:39;18.80;94.70
28071;DHT22;15383;48.408;9.968;2023-08-06T13:52:04;18.80;94.40
28071;DHT22;15383;48.408;9.968;2023-08-06T13:54:30;18.70;94.30
28071;DHT22;15383;48.408;9.968;2023-08-06T13:56:56;18.80;94.30
28071;DHT22;15383;48.408;9.968;2023-08-06T13:59:21;18.80;94.30
28071;DHT22;15383;48.408;9.968;2023-08-06T14:01:50;18.80;94.30
28071;DHT22;15383;48.408;9.968;2023-08-06T14:04:18;18.80;94.20
28071;DHT22;15383;48.408;9.968;2023-08-06T14:06:45;18.70;94.20
28071;DHT22;15383;48.408;9.968;2023-08-06T14:09:10;18.80;94.20
28071;DHT22;15383;48.408;9.968;2023-08-06T14:11:39;18.80;94.20
28071;DHT22;15383;48.408;9.968;2023-08-06T14:14:05;18.70;94.10
28071;DHT22;15383;48.408;9.968;2023-08-06T14:16:31;18.80;94.10
28071;DHT22;15383;48.408;9.968;2023-08-06T14:18:56;18.80;94.10
28071;DHT22;15383;48.408;9.968;2023-08-06T14:21:22;18.80;94.10
28071;DHT22;15383;48.408;9.968;2023-08-06T14:23:47;18.80;94.00
28071;DHT22;15383;48.408;9.968;2023-08-06T14:26:13;18.70;94.00
28071;DHT22;15383;48.408;9.968;2023-08-06T14:28:42;18.70;94.00
28071;DHT22;15383;48.408;9.968;2023-08-06T14:31:08;18.80;94.00
28071;DHT22;15383;48.408;9.968;2023-08-06T14:33:34;18.70;93.90
28071;DHT22;15383;48.408;9.968;2023-08-06T14:36:00;18.70;94.00
28071;DHT22;15383;48.408;9.968;2023-08-06T14:38:25;18.80;93.90
28071;DHT22;15383;48.408;9.968;2023-08-06T14:40:51;18.70;93.90
28071;DHT22;15383;48.408;9.968;2023-08-06T14:43:17;18.70;93.90
28071;DHT22;15383;48.408;9.968;2023-08-06T14:45:42;18.70;93.80
28071;DHT22;15383;48.408;9.968;2023-08-06T14:48:08;19.10;93.90
28071;DHT22;15383;48.408;9.968;2023-08-06T14:50:33;18.70;93.70
28071;DHT22;15383;48.408;9.968;2023-08-06T14:53:00;18.70;93.70
28071;DHT22;15383;48.408;9.968;2023-08-06T14:55:28;18.70;93.70
28071;DHT22;15383;48.408;9.968;2023-08-06T14:57:54;18.70;93.70
28071;DHT22;15383;48.408;9.968;2023-08-06T15:00:20;18.60;93.70
28071;DHT22;15383;48.408;9.968;2023-08-06T15:02:45;18.70;93.70
28071;DHT22;15383;48.408;9.968;2023-08-06T15:05:11;18.70;93.70
28071;DHT22;15383;48.408;9.968;2023-08-06T15:07:37;18.70;93.70
28071;DHT22;15383;48.408;9.968;2023-08-06T15:10:04;18.80;93.70
28071;DHT22;15383;48.408;9.968;2023-08-06T15:12:31;18.70;93.70
28071;DHT22;15383;48.408;9.968;2023-08-06T15:14:58;18.80;93.70
28071;DHT22;15383;48.408;9.968;2023-08-06T15:17:26;18.70;93.70
28071;DHT22;15383;48.408;9.968;2023-08-06T15:19:52;18.70;93.70
28071;DHT22;15383;48.408;9.968;2023-08-06T15:22:18;18.70;93.70
28071;DHT22;15383;48.408;9.968;2023-08-06T15:24:46;18.70;93.70
28071;DHT22;15383;48.408;9.968;2023-08-06T15:27:11;18.70;93.70
28071;DHT22;15383;48.408;9.968;2023-08-06T15:29:40;18.70;93.60
28071;DHT22;15383;48.408;9.968;2023-08-06T15:32:07;18.70;93.60
28071;DHT22;15383;48.408;9.968;2023-08-06T15:34:33;18.70;93.60
28071;DHT22;15383;48.408;9.968;2023-08-06T15:36:59;19.00;93.70
28071;DHT22;15383;48.408;9.968;2023-08-06T15:39:24;18.70;93.60
28071;DHT22;15383;48.408;9.968;2023-08-06T15:41:52;18.70;93.60
28071;DHT22;15383;48.408;9.968;2023-08-06T15:44:18;18.70;93.60
28071;DHT22;15383;48.408;9.968;2023-08-06T15:46:46;18.70;93.60
28071;DHT22;15383;48.408;9.968;2023-08-06T15:49:12;18.70;93.60